createdAt,value
2023-07-03T00:00:58.627Z,1540.00
2023-07-03T00:01:58.685Z,1530.00
2023-07-03T00:02:58.811Z,1530.00
2023-07-03T00:03:58.764Z,1542.00
2023-07-03T00:04:58.911Z,1544.00
2023-07-03T00:05:58.839Z,1534.00
2023-07-03T00:06:58.894Z,1536.00
2023-07-03T00:07:58.930Z,1537.00
2023-07-03T00:08:58.984Z,1541.00
2023-07-03T00:09:59.065Z,1537.00
2023-07-03T00:10:59.095Z,1549.00
2023-07-03T00:11:59.144Z,1535.00
2023-07-03T00:12:59.186Z,1526.00
2023-07-03T00:13:59.246Z,1537.00
2023-07-03T00:14:59.326Z,1532.00
2023-07-03T00:15:59.353Z,1525.00
2023-07-03T00:16:59.412Z,1525.00
2023-07-03T00:17:59.487Z,1534.00
2023-07-03T00:18:59.481Z,1528.00
2023-07-03T00:19:59.569Z,1545.00
2023-07-03T00:20:59.604Z,1533.00
2023-07-03T00:21:59.638Z,1517.00
2023-07-03T00:22:59.699Z,1521.00
2023-07-03T00:23:59.748Z,1529.00
2023-07-03T00:24:59.813Z,1527.00
2023-07-03T00:25:59.867Z,1522.00
2023-07-03T00:26:59.919Z,1535.00
2023-07-03T00:27:59.958Z,1539.00
2023-07-03T00:29:00.040Z,1534.00
2023-07-03T00:30:00.061Z,1527.00
2023-07-03T00:31:00.145Z,1518.00
2023-07-03T00:32:00.359Z,1520.00
2023-07-03T00:33:00.298Z,1516.00
2023-07-03T00:34:00.288Z,1517.00
2023-07-03T00:35:00.337Z,1517.00
2023-07-03T00:36:00.382Z,1524.00
2023-07-03T00:37:00.476Z,1529.00
2023-07-03T00:38:00.498Z,1523.00
2023-07-03T00:39:00.550Z,1517.00
2023-07-03T00:40:00.656Z,1509.00
2023-07-03T00:41:00.656Z,1510.00
2023-07-03T00:42:00.700Z,1507.00
2023-07-03T00:43:00.752Z,1509.00
2023-07-03T00:44:00.816Z,1498.00
2023-07-03T00:45:00.897Z,1507.00
2023-07-03T00:46:00.974Z,1509.00
2023-07-03T00:47:00.980Z,1511.00
2023-07-03T00:48:01.048Z,1511.00
2023-07-03T00:49:01.095Z,1505.00
2023-07-03T00:50:01.156Z,1512.00
2023-07-03T00:51:01.237Z,1516.00
2023-07-03T00:52:01.248Z,1503.00
2023-07-03T00:53:01.335Z,1514.00
2023-07-03T00:54:01.381Z,1503.00
2023-07-03T00:55:01.434Z,1512.00
2023-07-03T00:56:01.488Z,1504.00
2023-07-03T00:57:01.551Z,1510.00
2023-07-03T00:58:01.613Z,1505.00
2023-07-03T00:59:01.658Z,1498.00
2023-07-03T01:00:01.708Z,1506.00
2023-07-03T01:01:01.795Z,1498.00
2023-07-03T01:02:02.051Z,1493.00
2023-07-03T01:03:01.951Z,1491.00
2023-07-03T01:04:01.932Z,1486.00
2023-07-03T01:05:02.196Z,1488.00
2023-07-03T01:06:02.083Z,1493.00
2023-07-03T01:07:02.112Z,1490.00
2023-07-03T01:08:02.265Z,1492.00
2023-07-03T01:09:02.220Z,1490.00
2023-07-03T01:10:02.272Z,1496.00
2023-07-03T01:11:02.344Z,1496.00
2023-07-03T01:12:02.382Z,1505.00
2023-07-03T01:13:02.432Z,1494.00
2023-07-03T01:14:02.506Z,1498.00
2023-07-03T01:15:02.554Z,1502.00
2023-07-03T01:16:02.661Z,1494.00
2023-07-03T01:17:02.659Z,1502.00
2023-07-03T01:18:02.742Z,1511.00
2023-07-03T01:19:02.781Z,1512.00
2023-07-03T01:20:02.834Z,1525.00
2023-07-03T01:21:02.901Z,1521.00
2023-07-03T01:22:03.005Z,1528.00
2023-07-03T01:23:03.034Z,1520.00
2023-07-03T01:24:03.101Z,1533.00
2023-07-03T01:25:03.165Z,1517.00
2023-07-03T01:26:03.247Z,1534.00
2023-07-03T01:27:03.321Z,1527.00
2023-07-03T01:28:03.331Z,1520.00
2023-07-03T01:29:03.417Z,1523.00
2023-07-03T01:30:03.490Z,1524.00
2023-07-03T01:31:03.610Z,1530.00
2023-07-03T01:32:03.607Z,1522.00
2023-07-03T01:33:03.737Z,1525.00
2023-07-03T01:34:03.722Z,1527.00
2023-07-03T01:35:03.772Z,1520.00
2023-07-03T01:36:03.856Z,1524.00
2023-07-03T01:37:03.880Z,1524.00
2023-07-03T01:38:03.944Z,1518.00
2023-07-03T01:39:04.060Z,1519.00
2023-07-03T01:40:04.066Z,1515.00
2023-07-03T01:41:04.131Z,1520.00
2023-07-03T01:42:04.177Z,1527.00
2023-07-03T01:43:04.247Z,1536.00
2023-07-03T01:44:04.313Z,1540.00
2023-07-03T01:45:04.374Z,1541.00
2023-07-03T01:46:04.473Z,1522.00
2023-07-03T01:47:04.463Z,1546.00
2023-07-03T01:48:04.598Z,1541.00
2023-07-03T01:49:04.618Z,1540.00
2023-07-03T01:50:04.690Z,1542.00
2023-07-03T01:51:04.702Z,1549.00
2023-07-03T01:52:04.783Z,1556.00
2023-07-03T01:53:04.832Z,1546.00
2023-07-03T01:54:04.950Z,1552.00
2023-07-03T01:55:04.967Z,1550.00
2023-07-03T01:56:05.059Z,1552.00
2023-07-03T01:57:05.082Z,1552.00
2023-07-03T01:58:05.229Z,1552.00
2023-07-03T01:59:05.211Z,1550.00
2023-07-03T02:00:05.270Z,1549.00
2023-07-03T02:01:05.463Z,1548.00
2023-07-03T02:02:05.401Z,1559.00
2023-07-03T02:03:05.605Z,1557.00
2023-07-03T02:04:05.479Z,1559.00
2023-07-03T02:05:05.560Z,1550.00
2023-07-03T02:06:05.621Z,1539.00
2023-07-03T02:07:05.661Z,1552.00
2023-07-03T02:08:05.727Z,1560.00
2023-07-03T02:09:05.760Z,1542.00
2023-07-03T02:10:05.841Z,1547.00
2023-07-03T02:11:05.872Z,1549.00
2023-07-03T02:12:05.960Z,1554.00
2023-07-03T02:13:06.013Z,1551.00
2023-07-03T02:14:06.045Z,1561.00
2023-07-03T02:15:06.111Z,1556.00
2023-07-03T02:16:06.180Z,1548.00
2023-07-03T02:17:06.316Z,1542.00
2023-07-03T02:18:06.324Z,1536.00
2023-07-03T02:19:06.367Z,1564.00
2023-07-03T02:20:06.456Z,1563.00
2023-07-03T02:21:06.494Z,1546.00
2023-07-03T02:22:06.521Z,1549.00
2023-07-03T02:23:06.587Z,1551.00
2023-07-03T02:24:06.642Z,1554.00
2023-07-03T02:25:06.714Z,1559.00
2023-07-03T02:26:06.795Z,1567.00
2023-07-03T02:27:06.830Z,1559.00
2023-07-03T02:28:06.909Z,1549.00
2023-07-03T02:29:06.955Z,1549.00
2023-07-03T02:30:07.004Z,1548.00
2023-07-03T02:31:07.116Z,1535.00
2023-07-03T02:32:07.165Z,1533.00
2023-07-03T02:33:07.289Z,1548.00
2023-07-03T02:34:07.271Z,1551.00
2023-07-03T02:35:07.344Z,1544.00
2023-07-03T02:36:07.377Z,1550.00
2023-07-03T02:37:07.450Z,1531.00
2023-07-03T02:38:07.494Z,1537.00
2023-07-03T02:39:07.574Z,1539.00
2023-07-03T02:40:07.617Z,1537.00
2023-07-03T02:41:07.653Z,1543.00
2023-07-03T02:42:07.732Z,1543.00
2023-07-03T02:43:07.794Z,1529.00
2023-07-03T02:44:07.871Z,1560.00
2023-07-03T02:45:07.914Z,1534.00
2023-07-03T02:46:07.957Z,1532.00
2023-07-03T02:47:08.110Z,1542.00
2023-07-03T02:48:08.146Z,1527.00
2023-07-03T02:49:08.148Z,1535.00
2023-07-03T02:50:08.278Z,1533.00
2023-07-03T02:51:08.260Z,1522.00
2023-07-03T02:52:08.320Z,1530.00
2023-07-03T02:53:08.367Z,1523.00
2023-07-03T02:54:08.457Z,1525.00
2023-07-03T02:55:08.494Z,1524.00
2023-07-03T02:56:08.557Z,1526.00
2023-07-03T02:57:08.628Z,1530.00
2023-07-03T02:58:08.700Z,1527.00
2023-07-03T02:59:08.768Z,1522.00
2023-07-03T03:00:08.849Z,1502.00
2023-07-03T03:01:08.977Z,1514.00
2023-07-03T03:02:08.950Z,1519.00
2023-07-03T03:03:09.105Z,1529.00
2023-07-03T03:04:09.059Z,1530.00
2023-07-03T03:05:09.123Z,1519.00
2023-07-03T03:06:09.181Z,1532.00
2023-07-03T03:07:09.232Z,1521.00
2023-07-03T03:08:09.320Z,1511.00
2023-07-03T03:09:09.315Z,1508.00
2023-07-03T03:10:09.339Z,1511.00
2023-07-03T03:11:09.385Z,1497.00
2023-07-03T03:12:09.448Z,1508.00
2023-07-03T03:13:09.512Z,1492.00
2023-07-03T03:14:09.519Z,1501.00
2023-07-03T03:15:09.580Z,1495.00
2023-07-03T03:16:09.616Z,1503.00
2023-07-03T03:17:09.631Z,1495.00
2023-07-03T03:18:09.680Z,1508.00
2023-07-03T03:19:09.716Z,1499.00
2023-07-03T03:20:09.721Z,1502.00
2023-07-03T03:21:09.827Z,1490.00
2023-07-03T03:22:09.809Z,1488.00
2023-07-03T03:23:09.891Z,1506.00
2023-07-03T03:24:09.907Z,1493.00
2023-07-03T03:25:09.935Z,1485.00
2023-07-03T03:26:10.008Z,1500.00
2023-07-03T03:27:10.016Z,1500.00
2023-07-03T03:28:10.085Z,1491.00
2023-07-03T03:29:10.097Z,1491.00
2023-07-03T03:30:10.128Z,1480.00
2023-07-03T03:31:10.267Z,1473.00
2023-07-03T03:32:10.214Z,1487.00
2023-07-03T03:33:10.277Z,1484.00
2023-07-03T03:34:10.306Z,1477.00
2023-07-03T03:35:10.323Z,1475.00
2023-07-03T03:36:10.375Z,1478.00
2023-07-03T03:37:10.428Z,1479.00
2023-07-03T03:38:10.478Z,1476.00
2023-07-03T03:39:10.512Z,1480.00
2023-07-03T03:40:10.560Z,1484.00
2023-07-03T03:41:10.586Z,1473.00
2023-07-03T03:42:10.681Z,1465.00
2023-07-03T03:43:10.699Z,1451.00
2023-07-03T03:44:10.730Z,1474.00
2023-07-03T03:45:10.768Z,1474.00
2023-07-03T03:46:10.818Z,1469.00
2023-07-03T03:47:10.900Z,1469.00
2023-07-03T03:48:11.028Z,1457.00
2023-07-03T03:49:10.911Z,1469.00
2023-07-03T03:50:10.961Z,1456.00
2023-07-03T03:51:11.019Z,1462.00
2023-07-03T03:52:11.035Z,1444.00
2023-07-03T03:53:11.103Z,1453.00
2023-07-03T03:54:11.126Z,1439.00
2023-07-03T03:55:11.179Z,1437.00
2023-07-03T03:56:11.236Z,1415.00
2023-07-03T03:57:11.301Z,1428.00
2023-07-03T03:58:11.331Z,1435.00
2023-07-03T03:59:11.357Z,1424.00
2023-07-03T04:00:11.414Z,1421.00
2023-07-03T04:01:11.474Z,1434.00
2023-07-03T04:02:11.593Z,1439.00
2023-07-03T04:03:11.549Z,1443.00
2023-07-03T04:04:11.602Z,1434.00
2023-07-03T04:05:11.700Z,1420.00
2023-07-03T04:06:11.670Z,1429.00
2023-07-03T04:07:11.709Z,1421.00
2023-07-03T04:08:11.739Z,1435.00
2023-07-03T04:09:11.774Z,1434.00
2023-07-03T04:10:11.810Z,1429.00
2023-07-03T04:11:11.844Z,1419.00
2023-07-03T04:12:11.883Z,1420.00
2023-07-03T04:13:11.912Z,1423.00
2023-07-03T04:14:11.951Z,1429.00
2023-07-03T04:15:11.992Z,1423.00
2023-07-03T04:16:12.058Z,1426.00
2023-07-03T04:17:12.115Z,1414.00
2023-07-03T04:18:12.154Z,1424.00
2023-07-03T04:19:12.183Z,1416.00
2023-07-03T04:20:12.211Z,1407.00
2023-07-03T04:21:12.278Z,1396.00
2023-07-03T04:22:12.299Z,1415.00
2023-07-03T04:23:12.349Z,1415.00
2023-07-03T04:24:12.378Z,1419.00
2023-07-03T04:25:12.418Z,1413.00
2023-07-03T04:26:12.452Z,1428.00
2023-07-03T04:27:12.490Z,1430.00
2023-07-03T04:28:12.519Z,1431.00
2023-07-03T04:29:12.530Z,1424.00
2023-07-03T04:30:12.570Z,1431.00
2023-07-03T04:31:12.603Z,1420.00
2023-07-03T04:32:12.645Z,1405.00
2023-07-03T04:33:12.670Z,1405.00
2023-07-03T04:34:12.713Z,1416.00
2023-07-03T04:35:12.754Z,1421.00
2023-07-03T04:36:12.824Z,1408.00
2023-07-03T04:37:12.845Z,1401.00
2023-07-03T04:38:12.885Z,1396.00
2023-07-03T04:39:12.910Z,1402.00
2023-07-03T04:40:12.983Z,1412.00
2023-07-03T04:41:13.030Z,1392.00
2023-07-03T04:42:13.061Z,1404.00
2023-07-03T04:43:13.117Z,1389.00
2023-07-03T04:44:13.225Z,1395.00
2023-07-03T04:45:13.201Z,1391.00
2023-07-03T04:46:13.285Z,1386.00
2023-07-03T04:47:13.281Z,1387.00
2023-07-03T04:48:13.312Z,1380.00
2023-07-03T04:49:13.351Z,1396.00
2023-07-03T04:50:13.406Z,1383.00
2023-07-03T04:51:13.460Z,1403.00
2023-07-03T04:52:13.512Z,1397.00
2023-07-03T04:53:13.556Z,1397.00
2023-07-03T04:54:13.619Z,1406.00
2023-07-03T04:55:13.665Z,1410.00
2023-07-03T04:56:13.713Z,1425.00
2023-07-03T04:57:13.777Z,1420.00
2023-07-03T04:58:13.812Z,1415.00
2023-07-03T04:59:13.822Z,1423.00
2023-07-03T05:00:13.881Z,1432.00
2023-07-03T05:01:13.910Z,1433.00
2023-07-03T05:02:13.920Z,1426.00
2023-07-03T05:03:14.016Z,1428.00
2023-07-03T05:04:14.026Z,1438.00
2023-07-03T05:05:14.039Z,1430.00
2023-07-03T05:06:14.055Z,1434.00
2023-07-03T05:07:14.105Z,1434.00
2023-07-03T05:08:14.112Z,1417.00
2023-07-03T05:09:14.143Z,1430.00
2023-07-03T05:10:14.165Z,1429.00
2023-07-03T05:11:14.196Z,1443.00
2023-07-03T05:12:14.231Z,1433.00
2023-07-03T05:13:14.297Z,1430.00
2023-07-03T05:14:14.350Z,1417.00
2023-07-03T05:15:14.380Z,1436.00
2023-07-03T05:16:14.434Z,1441.00
2023-07-03T05:17:14.460Z,1425.00
2023-07-03T05:18:14.480Z,1442.00
2023-07-03T05:19:14.531Z,1429.00
2023-07-03T05:20:14.549Z,1437.00
2023-07-03T05:21:14.611Z,1427.00
2023-07-03T05:22:14.672Z,1436.00
2023-07-03T05:23:14.739Z,1424.00
2023-07-03T05:24:14.776Z,1428.00
2023-07-03T05:25:14.861Z,1426.00
2023-07-03T05:26:14.902Z,1423.00
2023-07-03T05:27:14.954Z,1400.00
2023-07-03T05:28:15.064Z,1400.00
2023-07-03T05:29:15.111Z,1398.00
2023-07-03T05:30:15.148Z,1380.00
2023-07-03T05:31:15.570Z,1414.00
2023-07-03T05:32:15.304Z,1436.00
2023-07-03T05:33:15.339Z,1451.00
2023-07-03T05:34:15.382Z,1430.00
2023-07-03T05:35:15.491Z,1444.00
2023-07-03T05:36:15.536Z,1460.00
2023-07-03T05:37:15.512Z,1465.00
2023-07-03T05:38:15.590Z,1473.00
2023-07-03T05:39:15.631Z,1504.00
2023-07-03T05:40:15.626Z,1525.00
2023-07-03T05:41:15.677Z,1536.00
2023-07-03T05:42:15.722Z,1553.00
2023-07-03T05:43:15.717Z,1594.00
2023-07-03T05:44:15.813Z,1584.00
2023-07-03T05:45:15.750Z,1604.00
2023-07-03T05:46:17.300Z,1618.00
2023-07-03T05:47:15.855Z,1595.00
2023-07-03T05:48:15.880Z,1635.00
2023-07-03T05:49:15.860Z,1616.00
2023-07-03T05:50:15.903Z,1651.00
2023-07-03T05:51:15.935Z,1664.00
2023-07-03T05:52:15.947Z,1645.00
2023-07-03T05:53:15.981Z,1671.00
2023-07-03T05:54:16.006Z,1691.00
2023-07-03T05:55:16.009Z,1712.00
2023-07-03T05:56:16.052Z,1745.00
2023-07-03T05:57:16.060Z,1762.00
2023-07-03T05:58:16.088Z,1766.00
2023-07-03T05:59:16.082Z,1796.00
2023-07-03T06:00:16.089Z,1846.00
2023-07-03T06:01:16.151Z,1880.00
2023-07-03T06:02:16.102Z,1892.00
2023-07-03T06:03:17.257Z,1938.00
2023-07-03T06:04:16.176Z,1965.00
2023-07-03T06:05:16.082Z,1963.00
2023-07-03T06:06:16.081Z,1972.00
2023-07-03T06:07:16.071Z,2001.00
2023-07-03T06:08:16.066Z,2009.00
2023-07-03T06:09:16.092Z,2029.00
2023-07-03T06:10:16.079Z,1974.00
2023-07-03T06:11:16.052Z,1926.00
2023-07-03T06:12:16.059Z,1932.00
2023-07-03T06:13:16.046Z,1938.00
2023-07-03T06:14:16.049Z,1892.00
2023-07-03T06:15:16.040Z,1900.00
2023-07-03T06:16:16.896Z,1939.00
2023-07-03T06:17:16.100Z,1950.00
2023-07-03T06:18:16.026Z,1869.00
2023-07-03T06:19:16.002Z,1870.00
2023-07-03T06:20:15.984Z,1971.00
2023-07-03T06:21:15.998Z,2020.00
2023-07-03T06:22:15.992Z,2061.00
2023-07-03T06:23:15.972Z,2075.00
2023-07-03T06:24:15.984Z,2085.00
2023-07-03T06:25:15.971Z,2161.00
2023-07-03T06:26:15.948Z,2156.00
2023-07-03T06:27:15.944Z,2174.00
2023-07-03T06:28:16.021Z,2204.00
2023-07-03T06:29:16.076Z,2236.00
2023-07-03T06:30:15.926Z,2275.00
2023-07-03T06:31:15.958Z,2293.00
2023-07-03T06:32:15.933Z,2295.00
2023-07-03T06:33:15.892Z,2316.00
2023-07-03T06:34:15.908Z,2325.00
2023-07-03T06:35:16.062Z,2329.00
2023-07-03T06:36:15.896Z,2339.00
2023-07-03T06:37:15.896Z,2335.00
2023-07-03T06:38:15.877Z,2326.00
2023-07-03T06:39:15.875Z,2352.00
2023-07-03T06:40:15.868Z,2371.00
2023-07-03T06:41:15.848Z,2377.00
2023-07-03T06:42:15.832Z,2398.00
2023-07-03T06:43:15.921Z,2400.00
2023-07-03T06:44:15.823Z,2346.00
2023-07-03T06:45:15.836Z,2394.00
2023-07-03T06:46:15.853Z,2379.00
2023-07-03T06:47:15.794Z,2394.00
2023-07-03T06:48:15.826Z,2411.00
2023-07-03T06:49:15.799Z,2433.00
2023-07-03T06:50:15.788Z,2427.00
2023-07-03T06:51:15.808Z,2420.00
2023-07-03T06:52:15.800Z,2426.00
2023-07-03T06:53:15.869Z,2409.00
2023-07-03T06:54:15.890Z,2418.00
2023-07-03T06:55:15.971Z,2398.00
2023-07-03T06:56:16.020Z,2391.00
2023-07-03T06:57:16.067Z,2323.00
2023-07-03T06:58:16.109Z,2375.00
2023-07-03T06:59:16.193Z,2391.00
2023-07-03T07:00:16.261Z,2405.00
2023-07-03T07:01:16.263Z,2406.00
2023-07-03T07:02:16.413Z,2412.00
2023-07-03T07:03:16.400Z,2427.00
2023-07-03T07:04:16.533Z,2436.00
2023-07-03T07:05:16.514Z,2447.00
2023-07-03T07:06:16.607Z,2456.00
2023-07-03T07:07:16.531Z,2448.00
2023-07-03T07:08:16.587Z,2440.00
2023-07-03T07:09:16.602Z,2430.00
2023-07-03T07:10:16.673Z,2443.00
2023-07-03T07:11:16.697Z,2441.00
2023-07-03T07:12:16.720Z,2445.00
2023-07-03T07:13:16.763Z,2450.00
2023-07-03T07:14:16.799Z,2456.00
2023-07-03T07:15:16.962Z,2450.00
2023-07-03T07:16:16.856Z,2464.00
2023-07-03T07:17:16.875Z,2465.00
2023-07-03T07:18:16.957Z,2463.00
2023-07-03T07:19:16.936Z,2478.00
2023-07-03T07:20:16.968Z,2481.00
2023-07-03T07:21:17.019Z,2483.00
2023-07-03T07:22:17.022Z,2476.00
2023-07-03T07:23:17.059Z,2486.00
2023-07-03T07:24:17.124Z,2483.00
2023-07-03T07:25:17.124Z,2467.00
2023-07-03T07:26:17.193Z,2459.00
2023-07-03T07:27:17.212Z,2449.00
2023-07-03T07:28:17.176Z,2418.00
2023-07-03T07:29:17.215Z,2359.00
2023-07-03T07:30:17.257Z,2399.00
2023-07-03T07:31:17.404Z,2350.00
2023-07-03T07:32:17.342Z,2331.00
2023-07-03T07:33:17.343Z,2321.00
2023-07-03T07:34:17.378Z,2283.00
2023-07-03T07:35:17.412Z,2252.00
2023-07-03T07:36:17.427Z,2230.00
2023-07-03T07:37:17.471Z,2197.00
2023-07-03T07:38:17.511Z,2167.00
2023-07-03T07:39:17.562Z,2125.00
2023-07-03T07:40:17.582Z,2101.00
2023-07-03T07:41:18.118Z,2070.00
2023-07-03T07:42:17.636Z,2035.00
2023-07-03T07:43:17.672Z,2004.00
2023-07-03T07:44:17.713Z,1978.00
2023-07-03T07:45:17.737Z,1960.00
2023-07-03T07:46:17.796Z,1929.00
2023-07-03T07:47:17.865Z,1889.00
2023-07-03T07:48:17.832Z,1846.00
2023-07-03T07:49:17.867Z,1825.00
2023-07-03T07:50:17.888Z,1802.00
2023-07-03T07:51:17.926Z,1761.00
2023-07-03T07:52:17.987Z,1728.00
2023-07-03T07:53:18.037Z,1710.00
2023-07-03T07:54:18.060Z,1680.00
2023-07-03T07:55:18.089Z,1664.00
2023-07-03T07:56:18.171Z,1641.00
2023-07-03T07:57:18.186Z,1600.00
2023-07-03T07:58:18.249Z,1584.00
2023-07-03T07:59:18.243Z,1557.00
2023-07-03T08:00:18.289Z,1526.00
2023-07-03T08:01:18.427Z,1504.00
2023-07-03T08:02:18.429Z,1482.00
2023-07-03T08:03:18.533Z,1468.00
2023-07-03T08:04:18.541Z,1448.00
2023-07-03T08:05:18.612Z,1431.00
2023-07-03T08:06:18.562Z,1394.00
2023-07-03T08:07:18.622Z,1379.00
2023-07-03T08:08:18.650Z,1353.00
2023-07-03T08:09:18.697Z,1336.00
2023-07-03T08:10:18.754Z,1309.00
2023-07-03T08:11:18.794Z,1286.00
2023-07-03T08:12:18.947Z,1275.00
2023-07-03T08:13:18.880Z,1239.00
2023-07-03T08:14:18.945Z,1212.00
2023-07-03T08:15:18.965Z,1213.00
2023-07-03T08:16:19.183Z,1188.00
2023-07-03T08:17:19.141Z,1165.00
2023-07-03T08:18:19.086Z,1157.00
2023-07-03T08:19:19.221Z,1122.00
2023-07-03T08:20:19.208Z,1105.00
2023-07-03T08:21:19.573Z,1091.00
2023-07-03T08:22:19.281Z,1075.00
2023-07-03T08:23:19.318Z,1047.00
2023-07-03T08:24:19.362Z,1028.00
2023-07-03T08:25:19.421Z,1019.00
2023-07-03T08:26:19.495Z,979.00
2023-07-03T08:27:19.490Z,979.00
2023-07-03T08:28:19.540Z,947.00
2023-07-03T08:29:19.568Z,952.00
2023-07-03T08:30:19.642Z,922.00
2023-07-03T08:31:19.843Z,898.00
2023-07-03T08:32:19.724Z,885.00
2023-07-03T08:33:19.810Z,879.00
2023-07-03T08:34:19.777Z,845.00
2023-07-03T08:37:20.053Z,711.00
2023-07-03T08:38:19.807Z,755.00
2023-07-03T08:39:19.834Z,833.00
2023-07-03T08:40:19.794Z,898.00
2023-07-03T08:41:19.776Z,1031.00
2023-07-03T08:42:20.082Z,1111.00
2023-07-03T08:43:19.755Z,1155.00
2023-07-03T08:44:19.782Z,1208.00
2023-07-03T08:45:19.807Z,1215.00
2023-07-03T08:46:20.137Z,1233.00
2023-07-03T08:47:19.916Z,1279.00
2023-07-03T08:48:19.740Z,1362.00
2023-07-03T08:49:19.762Z,1405.00
2023-07-03T08:50:31.972Z,1454.00
2023-07-03T08:51:20.790Z,1457.00
2023-07-03T08:52:19.691Z,1465.00
2023-07-03T08:53:19.705Z,1482.00
2023-07-03T08:54:19.693Z,1515.00
2023-07-03T08:55:19.681Z,1548.00
2023-07-03T08:56:19.675Z,1561.00
2023-07-03T08:57:19.706Z,1575.00
2023-07-03T08:58:19.658Z,1590.00
2023-07-03T08:59:19.654Z,1592.00
2023-07-03T09:00:19.705Z,1604.00
2023-07-03T09:01:19.757Z,1586.00
2023-07-03T09:02:19.684Z,1611.00
2023-07-03T09:03:19.769Z,1578.00
2023-07-03T09:04:19.649Z,1564.00
2023-07-03T09:05:19.620Z,1610.00
2023-07-03T09:06:19.623Z,1627.00
2023-07-03T09:07:19.716Z,1668.00
2023-07-03T09:08:19.597Z,1698.00
2023-07-03T09:09:19.589Z,1732.00
2023-07-03T09:10:19.603Z,1762.00
2023-07-03T09:11:20.078Z,1777.00
2023-07-03T09:12:20.081Z,1813.00
2023-07-03T09:13:19.564Z,1833.00
2023-07-03T09:14:19.555Z,1827.00
2023-07-03T09:15:19.540Z,1848.00
2023-07-03T09:16:19.600Z,1856.00
2023-07-03T09:17:19.604Z,1867.00
2023-07-03T09:18:19.638Z,1872.00
2023-07-03T09:19:19.665Z,1889.00
2023-07-03T09:20:19.732Z,1898.00
2023-07-03T09:21:19.794Z,1916.00
2023-07-03T09:22:19.841Z,1905.00
2023-07-03T09:23:19.963Z,1930.00
2023-07-03T09:24:20.055Z,1932.00
2023-07-03T09:25:20.026Z,1945.00
2023-07-03T09:26:20.095Z,1948.00
2023-07-03T09:27:20.856Z,1956.00
2023-07-03T09:28:20.204Z,1973.00
2023-07-03T09:29:20.890Z,1979.00
2023-07-03T09:30:20.354Z,1975.00
2023-07-03T09:31:20.437Z,1954.00
2023-07-03T09:32:20.805Z,1966.00
2023-07-03T09:33:20.844Z,1973.00
2023-07-03T09:34:20.595Z,1981.00
2023-07-03T09:35:20.648Z,1977.00
2023-07-03T09:36:20.727Z,2001.00
2023-07-03T09:37:20.764Z,2010.00
2023-07-03T09:38:21.783Z,2015.00
2023-07-03T09:39:20.963Z,2022.00
2023-07-03T09:40:21.557Z,2025.00
2023-07-03T09:41:21.025Z,2028.00
2023-07-03T09:42:21.071Z,2022.00
2023-07-03T09:43:21.124Z,2037.00
2023-07-03T09:44:22.295Z,2046.00
2023-07-03T09:45:21.260Z,2061.00
2023-07-03T09:46:21.319Z,2067.00
2023-07-03T09:47:21.576Z,2072.00
2023-07-03T09:48:21.482Z,2058.00
2023-07-03T09:49:21.521Z,2060.00
2023-07-03T09:50:21.564Z,2048.00
2023-07-03T09:51:21.675Z,1895.00
2023-07-03T09:52:22.114Z,1889.00
2023-07-03T09:53:21.794Z,1807.00
2023-07-03T09:54:21.816Z,1688.00
2023-07-03T09:55:21.923Z,1460.00
2023-07-03T09:56:22.613Z,1461.00
2023-07-03T09:57:21.986Z,1352.00
2023-07-03T09:58:22.037Z,1339.00
2023-07-03T09:59:22.088Z,1402.00
2023-07-03T10:00:22.117Z,1429.00
2023-07-03T10:07:23.162Z,1365.00
2023-07-03T10:08:23.487Z,1372.00
2023-07-03T10:11:22.255Z,1044.00
2023-07-03T10:12:22.193Z,922.00
2023-07-03T10:13:22.086Z,790.00
2023-07-03T10:14:22.081Z,660.00
2023-07-03T10:15:22.078Z,617.00
2023-07-03T10:16:22.066Z,584.00
2023-07-03T10:17:22.122Z,549.00
2023-07-03T10:18:22.112Z,518.00
2023-07-03T10:19:22.045Z,543.00
2023-07-03T10:20:23.070Z,518.00
2023-07-03T10:21:22.033Z,528.00
2023-07-03T10:22:22.029Z,498.00
2023-07-03T10:23:22.002Z,502.00
2023-07-03T10:24:22.018Z,507.00
2023-07-03T10:25:22.009Z,500.00
2023-07-03T10:26:24.694Z,500.00
2023-07-03T10:27:22.121Z,498.00
2023-07-03T10:28:21.977Z,503.00
2023-07-03T10:29:21.981Z,513.00
2023-07-03T10:30:21.974Z,530.00
2023-07-03T10:31:22.048Z,558.00
2023-07-03T10:32:22.014Z,560.00
2023-07-03T10:33:21.940Z,556.00
2023-07-03T10:34:21.955Z,556.00
2023-07-03T10:35:21.920Z,562.00
2023-07-03T10:36:21.924Z,563.00
2023-07-03T10:37:21.926Z,558.00
2023-07-03T10:38:21.923Z,561.00
2023-07-03T10:39:21.924Z,564.00
2023-07-03T10:40:21.897Z,552.00
2023-07-03T10:41:21.892Z,547.00
2023-07-03T10:42:21.912Z,548.00
2023-07-03T10:43:21.915Z,551.00
2023-07-03T10:44:21.874Z,545.00
2023-07-03T10:45:21.868Z,540.00
2023-07-03T10:46:24.134Z,536.00
2023-07-03T10:47:21.919Z,536.00
2023-07-03T10:48:21.886Z,528.00
2023-07-03T10:49:21.884Z,523.00
2023-07-03T10:50:21.839Z,509.00
2023-07-03T10:51:21.829Z,503.00
2023-07-03T10:52:23.912Z,505.00
2023-07-03T10:53:21.836Z,505.00
2023-07-03T10:54:21.816Z,501.00
2023-07-03T10:55:21.821Z,483.00
2023-07-03T10:56:21.817Z,479.00
2023-07-03T10:57:21.821Z,469.00
2023-07-03T10:58:21.810Z,500.00
2023-07-03T10:59:21.855Z,505.00
2023-07-03T11:00:21.794Z,502.00
2023-07-03T11:01:21.779Z,502.00
2023-07-03T11:02:21.830Z,500.00
2023-07-03T11:03:21.801Z,516.00
2023-07-03T11:04:25.491Z,513.00
2023-07-03T11:05:21.783Z,513.00
2023-07-03T11:06:21.741Z,508.00
2023-07-03T11:07:21.729Z,503.00
2023-07-03T11:08:21.722Z,482.00
2023-07-03T11:09:21.704Z,482.00
2023-07-03T11:10:23.302Z,500.00
2023-07-03T11:11:21.707Z,489.00
2023-07-03T11:12:21.719Z,479.00
2023-07-03T11:13:21.732Z,478.00
2023-07-03T11:14:21.690Z,458.00
2023-07-03T11:15:21.841Z,457.00
2023-07-03T11:16:23.191Z,465.00
2023-07-03T11:17:21.849Z,427.00
2023-07-03T11:20:21.748Z,468.00
2023-07-03T11:23:21.703Z,472.00
2023-07-03T11:24:21.620Z,495.00
2023-07-03T11:25:21.595Z,530.00
2023-07-03T11:28:23.989Z,472.00
2023-07-03T11:29:21.587Z,472.00
2023-07-03T11:30:21.589Z,484.00
2023-07-03T11:31:21.619Z,508.00
2023-07-03T11:32:21.559Z,513.00
2023-07-03T11:33:21.819Z,518.00
2023-07-03T11:37:21.730Z,540.00
2023-07-03T11:40:22.009Z,536.00
2023-07-03T11:44:22.007Z,537.00
2023-07-03T11:45:21.489Z,537.00
2023-07-03T11:46:21.570Z,542.00
2023-07-03T11:47:21.592Z,551.00
2023-07-03T11:48:21.451Z,570.00
2023-07-03T11:49:21.461Z,585.00
2023-07-03T11:50:21.464Z,584.00
2023-07-03T11:51:21.451Z,575.00
2023-07-03T11:52:21.429Z,565.00
2023-07-03T11:53:21.427Z,566.00
2023-07-03T11:54:21.418Z,560.00
2023-07-03T11:55:21.408Z,540.00
2023-07-03T11:56:21.400Z,520.00
2023-07-03T11:57:21.425Z,514.00
2023-07-03T11:58:21.549Z,509.00
2023-07-03T11:59:21.401Z,502.00
2023-07-03T12:00:21.417Z,506.00
2023-07-03T12:01:21.421Z,502.00
2023-07-03T12:02:21.430Z,514.00
2023-07-03T12:03:21.409Z,502.00
2023-07-03T12:04:21.366Z,499.00
2023-07-03T12:05:21.361Z,508.00
2023-07-03T12:06:21.349Z,511.00
2023-07-03T12:07:21.374Z,500.00
2023-07-03T12:08:21.335Z,497.00
2023-07-03T12:09:21.356Z,514.00
2023-07-03T12:10:21.317Z,502.00
2023-07-03T12:11:21.298Z,498.00
2023-07-03T12:12:21.316Z,503.00
2023-07-03T12:13:21.322Z,529.00
2023-07-03T12:14:21.323Z,526.00
2023-07-03T12:15:21.275Z,514.00
2023-07-03T12:16:21.310Z,526.00
2023-07-03T12:17:21.325Z,530.00
2023-07-03T12:18:21.273Z,525.00
2023-07-03T12:19:21.264Z,501.00
2023-07-03T12:20:21.260Z,502.00
2023-07-03T12:21:21.234Z,498.00
2023-07-03T12:22:21.239Z,504.00
2023-07-03T12:23:21.231Z,520.00
2023-07-03T12:24:21.268Z,517.00
2023-07-03T12:25:21.262Z,518.00
2023-07-03T12:26:21.228Z,532.00
2023-07-03T12:27:21.242Z,521.00
2023-07-03T12:28:21.194Z,508.00
2023-07-03T12:29:23.442Z,509.00
2023-07-03T12:30:21.387Z,514.00
2023-07-03T12:31:21.483Z,500.00
2023-07-03T12:32:21.477Z,503.00
2023-07-03T12:33:21.465Z,504.00
2023-07-03T12:34:21.492Z,514.00
2023-07-03T12:35:21.511Z,539.00